sensor_id;sensor_type;location;lat;lon;timestamp;P1;durP1;ratioP1;P2;durP2;ratioP2
72388;SDS011;60566;48.062;9.930;2023-04-06T00:01:49;15.45;;;7.95;;
72388;SDS011;60566;48.062;9.930;2023-04-06T00:04:15;13.68;;;8.18;;
72388;SDS011;60566;48.062;9.930;2023-04-06T00:06:41;17.25;;;8.48;;
72388;SDS011;60566;48.062;9.930;2023-04-06T00:09:06;20.92;;;8.80;;
72388;SDS011;60566;48.062;9.930;2023-04-06T00:11:31;20.25;;;8.52;;
72388;SDS011;60566;48.062;9.930;2023-04-06T00:13:57;16.40;;;9.00;;
72388;SDS011;60566;48.062;9.930;2023-04-06T00:16:23;16.55;;;8.82;;
72388;SDS011;60566;48.062;9.930;2023-04-06T00:18:48;15.85;;;8.93;;
72388;SDS011;60566;48.062;9.930;2023-04-06T00:21:15;15.20;;;8.18;;
72388;SDS011;60566;48.062;9.930;2023-04-06T00:23:40;18.08;;;9.45;;
72388;SDS011;60566;48.062;9.930;2023-04-06T00:26:06;18.85;;;9.18;;
72388;SDS011;60566;48.062;9.930;2023-04-06T00:28:31;19.60;;;8.35;;
72388;SDS011;60566;48.062;9.930;2023-04-06T00:30:57;17.73;;;8.07;;
72388;SDS011;60566;48.062;9.930;2023-04-06T00:33:22;13.45;;;7.85;;
72388;SDS011;60566;48.062;9.930;2023-04-06T00:35:48;16.02;;;8.95;;
72388;SDS011;60566;48.062;9.930;2023-04-06T00:38:15;16.83;;;8.30;;
72388;SDS011;60566;48.062;9.930;2023-04-06T00:40:40;17.40;;;8.82;;
72388;SDS011;60566;48.062;9.930;2023-04-06T00:43:06;16.80;;;8.95;;
72388;SDS011;60566;48.062;9.930;2023-04-06T00:45:31;18.65;;;9.10;;
72388;SDS011;60566;48.062;9.930;2023-04-06T00:47:57;17.80;;;9.60;;
72388;SDS011;60566;48.062;9.930;2023-04-06T00:50:22;17.70;;;8.35;;
72388;SDS011;60566;48.062;9.930;2023-04-06T00:52:48;18.17;;;9.40;;
72388;SDS011;60566;48.062;9.930;2023-04-06T00:55:14;14.15;;;7.82;;
72388;SDS011;60566;48.062;9.930;2023-04-06T00:57:40;16.08;;;8.18;;
72388;SDS011;60566;48.062;9.930;2023-04-06T01:00:06;17.00;;;8.73;;
72388;SDS011;60566;48.062;9.930;2023-04-06T01:02:32;16.05;;;8.30;;
72388;SDS011;60566;48.062;9.930;2023-04-06T01:04:57;15.82;;;8.90;;
72388;SDS011;60566;48.062;9.930;2023-04-06T01:07:23;15.55;;;8.20;;
72388;SDS011;60566;48.062;9.930;2023-04-06T01:09:48;16.63;;;8.50;;
72388;SDS011;60566;48.062;9.930;2023-04-06T01:12:15;16.52;;;8.50;;
72388;SDS011;60566;48.062;9.930;2023-04-06T01:14:40;17.77;;;8.68;;
72388;SDS011;60566;48.062;9.930;2023-04-06T01:17:06;17.15;;;8.70;;
72388;SDS011;60566;48.062;9.930;2023-04-06T01:19:31;16.48;;;8.85;;
72388;SDS011;60566;48.062;9.930;2023-04-06T01:21:57;18.35;;;8.80;;
72388;SDS011;60566;48.062;9.930;2023-04-06T01:24:23;16.30;;;8.63;;
72388;SDS011;60566;48.062;9.930;2023-04-06T01:26:49;15.57;;;8.75;;
72388;SDS011;60566;48.062;9.930;2023-04-06T01:29:14;19.48;;;9.18;;
72388;SDS011;60566;48.062;9.930;2023-04-06T01:31:40;16.20;;;8.73;;
72388;SDS011;60566;48.062;9.930;2023-04-06T01:34:05;18.83;;;8.93;;
72388;SDS011;60566;48.062;9.930;2023-04-06T01:36:30;18.30;;;8.75;;
72388;SDS011;60566;48.062;9.930;2023-04-06T01:38:56;18.40;;;8.75;;
72388;SDS011;60566;48.062;9.930;2023-04-06T01:41:23;17.15;;;8.52;;
72388;SDS011;60566;48.062;9.930;2023-04-06T01:43:48;20.33;;;9.32;;
72388;SDS011;60566;48.062;9.930;2023-04-06T01:46:13;15.43;;;8.30;;
72388;SDS011;60566;48.062;9.930;2023-04-06T01:48:39;17.27;;;8.82;;
72388;SDS011;60566;48.062;9.930;2023-04-06T01:51:04;16.92;;;8.95;;
72388;SDS011;60566;48.062;9.930;2023-04-06T01:53:30;14.65;;;7.65;;
72388;SDS011;60566;48.062;9.930;2023-04-06T01:55:55;21.30;;;9.43;;
72388;SDS011;60566;48.062;9.930;2023-04-06T01:58:22;17.95;;;8.77;;
72388;SDS011;60566;48.062;9.930;2023-04-06T02:00:47;16.27;;;8.25;;
72388;SDS011;60566;48.062;9.930;2023-04-06T02:03:12;18.20;;;9.20;;
72388;SDS011;60566;48.062;9.930;2023-04-06T02:05:38;13.50;;;7.97;;
72388;SDS011;60566;48.062;9.930;2023-04-06T02:08:03;16.83;;;8.15;;
72388;SDS011;60566;48.062;9.930;2023-04-06T02:10:29;14.02;;;8.70;;
72388;SDS011;60566;48.062;9.930;2023-04-06T02:12:54;15.95;;;8.50;;
72388;SDS011;60566;48.062;9.930;2023-04-06T02:15:21;18.73;;;8.43;;
72388;SDS011;60566;48.062;9.930;2023-04-06T02:17:46;15.68;;;8.15;;
72388;SDS011;60566;48.062;9.930;2023-04-06T02:20:11;15.93;;;9.27;;
72388;SDS011;60566;48.062;9.930;2023-04-06T02:22:37;18.00;;;8.80;;
72388;SDS011;60566;48.062;9.930;2023-04-06T02:25:02;17.80;;;8.77;;
72388;SDS011;60566;48.062;9.930;2023-04-06T02:27:28;21.60;;;9.68;;
72388;SDS011;60566;48.062;9.930;2023-04-06T02:29:54;18.85;;;8.38;;
72388;SDS011;60566;48.062;9.930;2023-04-06T02:32:20;15.93;;;8.07;;
72388;SDS011;60566;48.062;9.930;2023-04-06T02:34:46;15.07;;;8.35;;
72388;SDS011;60566;48.062;9.930;2023-04-06T02:37:11;16.67;;;8.45;;
72388;SDS011;60566;48.062;9.930;2023-04-06T02:39:36;15.73;;;8.50;;
72388;SDS011;60566;48.062;9.930;2023-04-06T02:42:02;19.10;;;9.25;;
72388;SDS011;60566;48.062;9.930;2023-04-06T02:44:27;17.77;;;8.27;;
72388;SDS011;60566;48.062;9.930;2023-04-06T02:46:53;17.63;;;8.27;;
72388;SDS011;60566;48.062;9.930;2023-04-06T02:49:19;16.00;;;9.02;;
72388;SDS011;60566;48.062;9.930;2023-04-06T02:51:45;15.32;;;8.20;;
72388;SDS011;60566;48.062;9.930;2023-04-06T02:54:10;16.35;;;8.63;;
72388;SDS011;60566;48.062;9.930;2023-04-06T02:56:35;17.27;;;8.88;;
72388;SDS011;60566;48.062;9.930;2023-04-06T02:59:01;18.38;;;9.02;;
72388;SDS011;60566;48.062;9.930;2023-04-06T03:01:26;16.73;;;8.65;;
72388;SDS011;60566;48.062;9.930;2023-04-06T03:03:51;15.68;;;7.80;;
72388;SDS011;60566;48.062;9.930;2023-04-06T03:06:18;15.40;;;8.13;;
72388;SDS011;60566;48.062;9.930;2023-04-06T03:08:43;17.83;;;9.25;;
72388;SDS011;60566;48.062;9.930;2023-04-06T03:11:09;18.35;;;8.80;;
72388;SDS011;60566;48.062;9.930;2023-04-06T03:13:35;16.60;;;8.27;;
72388;SDS011;60566;48.062;9.930;2023-04-06T03:16:01;15.85;;;8.80;;
72388;SDS011;60566;48.062;9.930;2023-04-06T03:18:26;18.95;;;9.35;;
72388;SDS011;60566;48.062;9.930;2023-04-06T03:20:51;16.45;;;8.65;;
72388;SDS011;60566;48.062;9.930;2023-04-06T03:23:18;19.70;;;9.48;;
72388;SDS011;60566;48.062;9.930;2023-04-06T03:25:44;15.25;;;8.38;;
72388;SDS011;60566;48.062;9.930;2023-04-06T03:28:09;18.38;;;9.27;;
72388;SDS011;60566;48.062;9.930;2023-04-06T03:30:34;17.15;;;9.15;;
72388;SDS011;60566;48.062;9.930;2023-04-06T03:33:00;18.90;;;9.25;;
72388;SDS011;60566;48.062;9.930;2023-04-06T03:35:25;17.58;;;9.70;;
72388;SDS011;60566;48.062;9.930;2023-04-06T03:37:50;18.17;;;9.55;;
72388;SDS011;60566;48.062;9.930;2023-04-06T03:40:17;19.85;;;9.32;;
72388;SDS011;60566;48.062;9.930;2023-04-06T03:42:43;18.70;;;9.70;;
72388;SDS011;60566;48.062;9.930;2023-04-06T03:45:08;19.88;;;10.23;;
72388;SDS011;60566;48.062;9.930;2023-04-06T03:47:34;25.05;;;12.55;;
72388;SDS011;60566;48.062;9.930;2023-04-06T03:49:59;22.45;;;11.20;;
72388;SDS011;60566;48.062;9.930;2023-04-06T03:52:25;28.75;;;14.82;;
72388;SDS011;60566;48.062;9.930;2023-04-06T03:54:50;24.15;;;11.07;;
72388;SDS011;60566;48.062;9.930;2023-04-06T03:57:17;25.70;;;11.00;;
72388;SDS011;60566;48.062;9.930;2023-04-06T03:59:42;19.50;;;9.68;;
72388;SDS011;60566;48.062;9.930;2023-04-06T04:02:08;16.55;;;9.07;;
72388;SDS011;60566;48.062;9.930;2023-04-06T04:04:33;20.65;;;9.25;;
72388;SDS011;60566;48.062;9.930;2023-04-06T04:06:58;17.42;;;8.98;;
72388;SDS011;60566;48.062;9.930;2023-04-06T04:09:24;20.33;;;10.02;;
72388;SDS011;60566;48.062;9.930;2023-04-06T04:11:49;19.42;;;10.25;;
72388;SDS011;60566;48.062;9.930;2023-04-06T04:14:16;21.90;;;11.13;;
72388;SDS011;60566;48.062;9.930;2023-04-06T04:19:16;19.45;;;9.38;;
72388;SDS011;60566;48.062;9.930;2023-04-06T04:21:47;17.15;;;8.50;;
72388;SDS011;60566;48.062;9.930;2023-04-06T04:24:13;17.15;;;8.43;;
72388;SDS011;60566;48.062;9.930;2023-04-06T04:26:39;16.65;;;8.43;;
72388;SDS011;60566;48.062;9.930;2023-04-06T04:29:04;30.85;;;9.68;;
72388;SDS011;60566;48.062;9.930;2023-04-06T04:31:31;21.15;;;9.38;;
72388;SDS011;60566;48.062;9.930;2023-04-06T04:33:57;17.92;;;8.40;;
72388;SDS011;60566;48.062;9.930;2023-04-06T04:36:22;21.00;;;8.57;;
72388;SDS011;60566;48.062;9.930;2023-04-06T04:38:48;20.98;;;9.02;;
72388;SDS011;60566;48.062;9.930;2023-04-06T04:41:13;18.50;;;9.55;;
72388;SDS011;60566;48.062;9.930;2023-04-06T04:43:39;17.98;;;9.00;;
72388;SDS011;60566;48.062;9.930;2023-04-06T04:46:04;18.10;;;9.68;;
72388;SDS011;60566;48.062;9.930;2023-04-06T04:48:31;17.27;;;8.65;;
72388;SDS011;60566;48.062;9.930;2023-04-06T04:50:57;18.30;;;9.27;;
72388;SDS011;60566;48.062;9.930;2023-04-06T04:53:22;18.52;;;9.18;;
72388;SDS011;60566;48.062;9.930;2023-04-06T04:55:47;18.92;;;8.48;;
72388;SDS011;60566;48.062;9.930;2023-04-06T04:58:13;17.83;;;7.97;;
72388;SDS011;60566;48.062;9.930;2023-04-06T05:00:38;19.58;;;9.55;;
72388;SDS011;60566;48.062;9.930;2023-04-06T05:03:04;22.95;;;10.50;;
72388;SDS011;60566;48.062;9.930;2023-04-06T05:05:31;25.55;;;10.68;;
72388;SDS011;60566;48.062;9.930;2023-04-06T05:07:56;19.50;;;9.75;;
72388;SDS011;60566;48.062;9.930;2023-04-06T05:10:22;20.48;;;9.82;;
72388;SDS011;60566;48.062;9.930;2023-04-06T05:12:47;27.27;;;10.57;;
72388;SDS011;60566;48.062;9.930;2023-04-06T05:15:13;24.60;;;10.43;;
72388;SDS011;60566;48.062;9.930;2023-04-06T05:17:38;22.60;;;11.02;;
72388;SDS011;60566;48.062;9.930;2023-04-06T05:20:04;28.88;;;13.77;;
72388;SDS011;60566;48.062;9.930;2023-04-06T05:22:32;20.90;;;10.85;;
72388;SDS011;60566;48.062;9.930;2023-04-06T05:24:58;25.35;;;10.65;;
72388;SDS011;60566;48.062;9.930;2023-04-06T05:27:23;21.95;;;11.70;;
72388;SDS011;60566;48.062;9.930;2023-04-06T05:29:48;27.27;;;11.00;;
72388;SDS011;60566;48.062;9.930;2023-04-06T05:32:14;23.20;;;10.45;;
72388;SDS011;60566;48.062;9.930;2023-04-06T05:34:39;24.60;;;11.32;;
72388;SDS011;60566;48.062;9.930;2023-04-06T05:37:05;23.70;;;11.23;;
72388;SDS011;60566;48.062;9.930;2023-04-06T05:39:32;24.10;;;11.82;;
72388;SDS011;60566;48.062;9.930;2023-04-06T05:41:57;19.60;;;9.55;;
72388;SDS011;60566;48.062;9.930;2023-04-06T05:44:23;19.05;;;10.68;;
72388;SDS011;60566;48.062;9.930;2023-04-06T05:46:48;23.23;;;10.38;;
72388;SDS011;60566;48.062;9.930;2023-04-06T05:49:13;22.33;;;10.88;;
72388;SDS011;60566;48.062;9.930;2023-04-06T05:51:39;22.33;;;9.20;;
72388;SDS011;60566;48.062;9.930;2023-04-06T05:54:04;21.13;;;11.05;;
72388;SDS011;60566;48.062;9.930;2023-04-06T05:56:31;22.63;;;11.65;;
72388;SDS011;60566;48.062;9.930;2023-04-06T05:58:56;23.00;;;10.90;;
72388;SDS011;60566;48.062;9.930;2023-04-06T06:01:22;22.20;;;11.25;;
72388;SDS011;60566;48.062;9.930;2023-04-06T06:03:47;24.33;;;9.55;;
72388;SDS011;60566;48.062;9.930;2023-04-06T06:06:13;23.83;;;10.50;;
72388;SDS011;60566;48.062;9.930;2023-04-06T06:08:38;24.20;;;10.80;;
72388;SDS011;60566;48.062;9.930;2023-04-06T06:11:04;20.73;;;10.18;;
72388;SDS011;60566;48.062;9.930;2023-04-06T06:13:31;21.63;;;10.57;;
72388;SDS011;60566;48.062;9.930;2023-04-06T06:15:56;21.40;;;10.38;;
72388;SDS011;60566;48.062;9.930;2023-04-06T06:18:21;21.60;;;10.32;;
72388;SDS011;60566;48.062;9.930;2023-04-06T06:20:47;20.63;;;10.05;;
72388;SDS011;60566;48.062;9.930;2023-04-06T06:23:12;19.60;;;10.43;;
72388;SDS011;60566;48.062;9.930;2023-04-06T06:25:39;19.23;;;9.65;;
72388;SDS011;60566;48.062;9.930;2023-04-06T06:28:04;19.00;;;9.18;;
72388;SDS011;60566;48.062;9.930;2023-04-06T06:30:31;19.67;;;9.40;;
72388;SDS011;60566;48.062;9.930;2023-04-06T06:32:56;17.17;;;9.50;;
72388;SDS011;60566;48.062;9.930;2023-04-06T06:35:22;20.85;;;9.15;;
72388;SDS011;60566;48.062;9.930;2023-04-06T06:37:47;20.20;;;10.27;;
72388;SDS011;60566;48.062;9.930;2023-04-06T06:40:13;16.85;;;9.88;;
72388;SDS011;60566;48.062;9.930;2023-04-06T06:42:40;16.98;;;9.82;;
72388;SDS011;60566;48.062;9.930;2023-04-06T06:45:09;15.85;;;9.43;;
72388;SDS011;60566;48.062;9.930;2023-04-06T06:50:19;15.48;;;7.78;;
72388;SDS011;60566;48.062;9.930;2023-04-06T06:52:45;16.20;;;7.95;;
72388;SDS011;60566;48.062;9.930;2023-04-06T06:55:10;14.70;;;7.95;;
72388;SDS011;60566;48.062;9.930;2023-04-06T06:57:39;16.80;;;8.50;;
72388;SDS011;60566;48.062;9.930;2023-04-06T07:00:05;13.80;;;7.75;;
72388;SDS011;60566;48.062;9.930;2023-04-06T07:02:34;17.42;;;8.70;;
72388;SDS011;60566;48.062;9.930;2023-04-06T07:05:00;16.67;;;8.52;;
72388;SDS011;60566;48.062;9.930;2023-04-06T07:07:34;15.02;;;7.78;;
72388;SDS011;60566;48.062;9.930;2023-04-06T07:09:59;15.68;;;8.07;;
72388;SDS011;60566;48.062;9.930;2023-04-06T07:12:46;17.27;;;8.75;;
72388;SDS011;60566;48.062;9.930;2023-04-06T07:15:14;16.90;;;9.45;;
72388;SDS011;60566;48.062;9.930;2023-04-06T07:17:46;17.10;;;9.13;;
72388;SDS011;60566;48.062;9.930;2023-04-06T07:20:12;18.15;;;8.90;;
72388;SDS011;60566;48.062;9.930;2023-04-06T07:22:39;20.92;;;9.43;;
72388;SDS011;60566;48.062;9.930;2023-04-06T07:25:05;22.15;;;9.50;;
72388;SDS011;60566;48.062;9.930;2023-04-06T07:27:31;15.23;;;8.45;;
72388;SDS011;60566;48.062;9.930;2023-04-06T07:29:56;19.45;;;8.38;;
72388;SDS011;60566;48.062;9.930;2023-04-06T07:32:22;16.95;;;8.05;;
72388;SDS011;60566;48.062;9.930;2023-04-06T07:34:47;18.02;;;8.57;;
72388;SDS011;60566;48.062;9.930;2023-04-06T07:37:13;21.33;;;9.35;;
72388;SDS011;60566;48.062;9.930;2023-04-06T07:39:39;18.13;;;8.95;;
72388;SDS011;60566;48.062;9.930;2023-04-06T07:42:08;16.80;;;9.63;;
72388;SDS011;60566;48.062;9.930;2023-04-06T07:44:33;17.42;;;8.45;;
72388;SDS011;60566;48.062;9.930;2023-04-06T07:46:58;17.65;;;9.98;;
72388;SDS011;60566;48.062;9.930;2023-04-06T07:49:24;16.88;;;8.98;;
72388;SDS011;60566;48.062;9.930;2023-04-06T07:51:49;15.32;;;7.93;;
72388;SDS011;60566;48.062;9.930;2023-04-06T07:54:15;17.20;;;9.90;;
72388;SDS011;60566;48.062;9.930;2023-04-06T07:56:41;16.90;;;8.80;;
72388;SDS011;60566;48.062;9.930;2023-04-06T07:59:07;16.10;;;8.65;;
72388;SDS011;60566;48.062;9.930;2023-04-06T08:01:32;13.57;;;9.05;;
72388;SDS011;60566;48.062;9.930;2023-04-06T08:03:58;16.05;;;9.07;;
72388;SDS011;60566;48.062;9.930;2023-04-06T08:06:23;16.20;;;8.55;;
72388;SDS011;60566;48.062;9.930;2023-04-06T08:08:49;21.98;;;9.52;;
72388;SDS011;60566;48.062;9.930;2023-04-06T08:11:14;20.08;;;7.90;;
72388;SDS011;60566;48.062;9.930;2023-04-06T08:13:41;20.23;;;9.18;;
72388;SDS011;60566;48.062;9.930;2023-04-06T08:16:07;16.52;;;9.70;;
72388;SDS011;60566;48.062;9.930;2023-04-06T08:18:32;17.05;;;8.57;;
72388;SDS011;60566;48.062;9.930;2023-04-06T08:20:58;17.70;;;8.70;;
72388;SDS011;60566;48.062;9.930;2023-04-06T08:23:23;20.02;;;10.55;;
72388;SDS011;60566;48.062;9.930;2023-04-06T08:25:48;17.20;;;8.88;;
72388;SDS011;60566;48.062;9.930;2023-04-06T08:28:14;17.20;;;9.50;;
72388;SDS011;60566;48.062;9.930;2023-04-06T08:30:41;19.20;;;8.52;;
72388;SDS011;60566;48.062;9.930;2023-04-06T08:33:07;19.70;;;9.25;;
72388;SDS011;60566;48.062;9.930;2023-04-06T08:35:32;18.13;;;9.10;;
72388;SDS011;60566;48.062;9.930;2023-04-06T08:37:57;19.27;;;8.70;;
72388;SDS011;60566;48.062;9.930;2023-04-06T08:40:23;16.58;;;9.00;;
72388;SDS011;60566;48.062;9.930;2023-04-06T08:42:49;17.15;;;8.88;;
72388;SDS011;60566;48.062;9.930;2023-04-06T08:45:15;18.88;;;9.15;;
72388;SDS011;60566;48.062;9.930;2023-04-06T08:47:43;17.67;;;8.65;;
72388;SDS011;60566;48.062;9.930;2023-04-06T08:50:10;18.63;;;9.57;;
72388;SDS011;60566;48.062;9.930;2023-04-06T08:52:53;18.77;;;8.90;;
72388;SDS011;60566;48.062;9.930;2023-04-06T08:55:19;18.10;;;8.93;;
72388;SDS011;60566;48.062;9.930;2023-04-06T08:57:45;17.00;;;9.15;;
72388;SDS011;60566;48.062;9.930;2023-04-06T09:00:11;14.27;;;8.93;;
72388;SDS011;60566;48.062;9.930;2023-04-06T09:02:38;19.75;;;9.30;;
72388;SDS011;60566;48.062;9.930;2023-04-06T09:10:01;15.15;;;7.72;;
72388;SDS011;60566;48.062;9.930;2023-04-06T09:10:55;16.23;;;9.05;;
72388;SDS011;60566;48.062;9.930;2023-04-06T09:16:01;15.95;;;7.93;;
72388;SDS011;60566;48.062;9.930;2023-04-06T09:18:37;17.00;;;7.85;;
72388;SDS011;60566;48.062;9.930;2023-04-06T09:21:09;14.93;;;8.32;;
72388;SDS011;60566;48.062;9.930;2023-04-06T09:23:44;18.83;;;8.77;;
72388;SDS011;60566;48.062;9.930;2023-04-06T09:26:27;11.98;;;5.22;;
72388;SDS011;60566;48.062;9.930;2023-04-06T09:32:01;15.15;;;7.20;;
72388;SDS011;60566;48.062;9.930;2023-04-06T09:37:31;16.17;;;8.02;;
72388;SDS011;60566;48.062;9.930;2023-04-06T09:40:02;15.30;;;8.57;;
72388;SDS011;60566;48.062;9.930;2023-04-06T09:42:31;18.25;;;8.52;;
72388;SDS011;60566;48.062;9.930;2023-04-06T09:45:05;14.43;;;8.35;;
72388;SDS011;60566;48.062;9.930;2023-04-06T09:47:49;16.30;;;9.18;;
72388;SDS011;60566;48.062;9.930;2023-04-06T09:53:10;14.25;;;8.20;;
72388;SDS011;60566;48.062;9.930;2023-04-06T09:55:39;17.17;;;7.40;;
72388;SDS011;60566;48.062;9.930;2023-04-06T09:58:14;13.10;;;7.30;;
72388;SDS011;60566;48.062;9.930;2023-04-06T10:00:48;13.45;;;7.10;;
72388;SDS011;60566;48.062;9.930;2023-04-06T10:03:20;16.15;;;9.38;;
72388;SDS011;60566;48.062;9.930;2023-04-06T10:05:50;14.82;;;7.72;;
72388;SDS011;60566;48.062;9.930;2023-04-06T10:08:19;17.30;;;8.10;;
72388;SDS011;60566;48.062;9.930;2023-04-06T10:10:45;15.55;;;7.80;;
72388;SDS011;60566;48.062;9.930;2023-04-06T10:13:11;21.83;;;9.50;;
72388;SDS011;60566;48.062;9.930;2023-04-06T10:15:37;14.07;;;7.63;;
72388;SDS011;60566;48.062;9.930;2023-04-06T10:18:03;13.52;;;7.32;;
72388;SDS011;60566;48.062;9.930;2023-04-06T10:20:29;13.75;;;6.85;;
72388;SDS011;60566;48.062;9.930;2023-04-06T10:23:01;15.30;;;7.05;;
72388;SDS011;60566;48.062;9.930;2023-04-06T10:25:33;11.43;;;6.57;;
72388;SDS011;60566;48.062;9.930;2023-04-06T10:27:59;13.60;;;7.35;;
72388;SDS011;60566;48.062;9.930;2023-04-06T10:30:24;12.43;;;5.75;;
72388;SDS011;60566;48.062;9.930;2023-04-06T10:32:50;11.73;;;6.28;;
72388;SDS011;60566;48.062;9.930;2023-04-06T10:35:15;12.23;;;6.43;;
72388;SDS011;60566;48.062;9.930;2023-04-06T10:37:50;13.77;;;6.97;;
72388;SDS011;60566;48.062;9.930;2023-04-06T10:40:22;14.20;;;6.78;;
72388;SDS011;60566;48.062;9.930;2023-04-06T10:42:49;12.70;;;6.65;;
72388;SDS011;60566;48.062;9.930;2023-04-06T10:45:22;16.33;;;7.72;;
72388;SDS011;60566;48.062;9.930;2023-04-06T10:47:47;10.85;;;6.80;;
72388;SDS011;60566;48.062;9.930;2023-04-06T10:50:14;11.88;;;6.63;;
72388;SDS011;60566;48.062;9.930;2023-04-06T10:52:40;11.73;;;7.50;;
72388;SDS011;60566;48.062;9.930;2023-04-06T10:55:05;12.68;;;8.10;;
72388;SDS011;60566;48.062;9.930;2023-04-06T10:57:31;15.27;;;6.78;;
72388;SDS011;60566;48.062;9.930;2023-04-06T10:59:58;15.77;;;7.50;;
72388;SDS011;60566;48.062;9.930;2023-04-06T11:02:23;12.07;;;7.05;;
72388;SDS011;60566;48.062;9.930;2023-04-06T11:04:55;16.40;;;7.50;;
72388;SDS011;60566;48.062;9.930;2023-04-06T11:07:22;15.15;;;8.63;;
72388;SDS011;60566;48.062;9.930;2023-04-06T11:09:49;14.10;;;7.32;;
72388;SDS011;60566;48.062;9.930;2023-04-06T11:12:20;13.50;;;7.13;;
72388;SDS011;60566;48.062;9.930;2023-04-06T11:14:52;16.58;;;8.20;;
72388;SDS011;60566;48.062;9.930;2023-04-06T11:17:19;12.43;;;6.78;;
72388;SDS011;60566;48.062;9.930;2023-04-06T11:19:50;13.68;;;7.28;;
72388;SDS011;60566;48.062;9.930;2023-04-06T11:22:16;13.25;;;6.95;;
72388;SDS011;60566;48.062;9.930;2023-04-06T11:24:41;14.55;;;7.88;;
72388;SDS011;60566;48.062;9.930;2023-04-06T11:27:06;14.07;;;7.25;;
72388;SDS011;60566;48.062;9.930;2023-04-06T11:29:32;12.10;;;7.05;;
72388;SDS011;60566;48.062;9.930;2023-04-06T11:31:58;12.23;;;6.32;;
72388;SDS011;60566;48.062;9.930;2023-04-06T11:34:28;14.43;;;7.10;;
72388;SDS011;60566;48.062;9.930;2023-04-06T11:36:54;15.13;;;7.78;;
72388;SDS011;60566;48.062;9.930;2023-04-06T11:39:23;15.23;;;7.85;;
72388;SDS011;60566;48.062;9.930;2023-04-06T11:41:49;13.00;;;7.72;;
72388;SDS011;60566;48.062;9.930;2023-04-06T11:44:15;13.13;;;7.15;;
72388;SDS011;60566;48.062;9.930;2023-04-06T11:46:40;15.30;;;7.82;;
72388;SDS011;60566;48.062;9.930;2023-04-06T11:49:06;15.57;;;8.27;;
72388;SDS011;60566;48.062;9.930;2023-04-06T11:51:36;13.70;;;6.68;;
72388;SDS011;60566;48.062;9.930;2023-04-06T11:54:01;17.13;;;9.02;;
72388;SDS011;60566;48.062;9.930;2023-04-06T11:56:27;21.08;;;9.93;;
72388;SDS011;60566;48.062;9.930;2023-04-06T11:58:56;15.10;;;8.32;;
72388;SDS011;60566;48.062;9.930;2023-04-06T12:01:23;15.25;;;8.18;;
72388;SDS011;60566;48.062;9.930;2023-04-06T12:03:50;14.85;;;8.35;;
72388;SDS011;60566;48.062;9.930;2023-04-06T12:06:16;15.88;;;8.02;;
72388;SDS011;60566;48.062;9.930;2023-04-06T12:08:43;14.90;;;8.05;;
72388;SDS011;60566;48.062;9.930;2023-04-06T12:11:08;16.45;;;8.20;;
72388;SDS011;60566;48.062;9.930;2023-04-06T12:13:34;16.63;;;9.27;;
72388;SDS011;60566;48.062;9.930;2023-04-06T12:15:59;15.02;;;8.27;;
72388;SDS011;60566;48.062;9.930;2023-04-06T12:18:25;12.77;;;7.50;;
72388;SDS011;60566;48.062;9.930;2023-04-06T12:20:50;13.80;;;8.20;;
72388;SDS011;60566;48.062;9.930;2023-04-06T12:23:16;15.70;;;8.18;;
72388;SDS011;60566;48.062;9.930;2023-04-06T12:25:43;17.52;;;8.80;;
72388;SDS011;60566;48.062;9.930;2023-04-06T12:28:08;14.50;;;7.82;;
72388;SDS011;60566;48.062;9.930;2023-04-06T12:30:34;17.88;;;8.35;;
72388;SDS011;60566;48.062;9.930;2023-04-06T12:32:59;17.50;;;8.02;;
72388;SDS011;60566;48.062;9.930;2023-04-06T12:35:24;15.18;;;7.55;;
72388;SDS011;60566;48.062;9.930;2023-04-06T12:37:50;14.57;;;8.23;;
72388;SDS011;60566;48.062;9.930;2023-04-06T12:40:15;13.07;;;7.47;;
72388;SDS011;60566;48.062;9.930;2023-04-06T12:42:42;16.35;;;8.18;;
72388;SDS011;60566;48.062;9.930;2023-04-06T12:45:08;13.95;;;7.88;;
72388;SDS011;60566;48.062;9.930;2023-04-06T12:47:43;14.63;;;8.23;;
72388;SDS011;60566;48.062;9.930;2023-04-06T12:50:09;13.35;;;7.70;;
72388;SDS011;60566;48.062;9.930;2023-04-06T12:52:37;13.05;;;7.70;;
72388;SDS011;60566;48.062;9.930;2023-04-06T12:55:10;14.30;;;8.73;;
72388;SDS011;60566;48.062;9.930;2023-04-06T12:57:36;13.70;;;7.78;;
72388;SDS011;60566;48.062;9.930;2023-04-06T13:00:03;13.82;;;7.68;;
72388;SDS011;60566;48.062;9.930;2023-04-06T13:02:38;12.73;;;7.10;;
72388;SDS011;60566;48.062;9.930;2023-04-06T13:05:04;11.60;;;7.10;;
72388;SDS011;60566;48.062;9.930;2023-04-06T13:07:33;12.52;;;7.30;;
72388;SDS011;60566;48.062;9.930;2023-04-06T13:09:58;13.65;;;7.78;;
72388;SDS011;60566;48.062;9.930;2023-04-06T13:12:24;13.65;;;7.15;;
72388;SDS011;60566;48.062;9.930;2023-04-06T13:14:50;12.25;;;6.35;;
72388;SDS011;60566;48.062;9.930;2023-04-06T13:17:28;13.15;;;6.57;;
72388;SDS011;60566;48.062;9.930;2023-04-06T13:19:57;13.85;;;6.63;;
72388;SDS011;60566;48.062;9.930;2023-04-06T13:22:29;11.43;;;6.05;;
72388;SDS011;60566;48.062;9.930;2023-04-06T13:24:54;10.27;;;6.22;;
72388;SDS011;60566;48.062;9.930;2023-04-06T13:27:23;11.02;;;5.57;;
72388;SDS011;60566;48.062;9.930;2023-04-06T13:29:48;10.75;;;5.65;;
72388;SDS011;60566;48.062;9.930;2023-04-06T13:32:17;10.05;;;5.50;;
72388;SDS011;60566;48.062;9.930;2023-04-06T13:34:46;12.57;;;5.75;;
72388;SDS011;60566;48.062;9.930;2023-04-06T13:37:12;13.77;;;5.63;;
72388;SDS011;60566;48.062;9.930;2023-04-06T13:39:38;8.55;;;5.30;;
72388;SDS011;60566;48.062;9.930;2023-04-06T13:42:04;11.65;;;5.13;;
72388;SDS011;60566;48.062;9.930;2023-04-06T13:44:30;10.68;;;5.07;;
72388;SDS011;60566;48.062;9.930;2023-04-06T13:47:03;10.05;;;5.78;;
72388;SDS011;60566;48.062;9.930;2023-04-06T13:49:38;11.13;;;5.60;;
72388;SDS011;60566;48.062;9.930;2023-04-06T13:52:07;9.60;;;5.47;;
72388;SDS011;60566;48.062;9.930;2023-04-06T13:54:41;10.40;;;5.25;;
72388;SDS011;60566;48.062;9.930;2023-04-06T13:57:08;10.30;;;5.68;;
72388;SDS011;60566;48.062;9.930;2023-04-06T13:59:37;9.82;;;5.90;;
72388;SDS011;60566;48.062;9.930;2023-04-06T14:02:04;11.85;;;6.20;;
72388;SDS011;60566;48.062;9.930;2023-04-06T14:04:35;11.13;;;5.53;;
72388;SDS011;60566;48.062;9.930;2023-04-06T14:07:19;11.30;;;6.03;;
72388;SDS011;60566;48.062;9.930;2023-04-06T14:09:45;9.60;;;5.70;;
72388;SDS011;60566;48.062;9.930;2023-04-06T14:14:54;12.07;;;6.13;;
72388;SDS011;60566;48.062;9.930;2023-04-06T14:17:22;10.80;;;6.50;;
72388;SDS011;60566;48.062;9.930;2023-04-06T14:19:47;11.35;;;5.43;;
72388;SDS011;60566;48.062;9.930;2023-04-06T14:22:21;9.43;;;5.25;;
72388;SDS011;60566;48.062;9.930;2023-04-06T14:24:47;11.10;;;5.93;;
72388;SDS011;60566;48.062;9.930;2023-04-06T14:27:12;11.18;;;6.55;;
72388;SDS011;60566;48.062;9.930;2023-04-06T14:29:38;15.23;;;6.10;;
72388;SDS011;60566;48.062;9.930;2023-04-06T14:32:03;13.80;;;5.90;;
72388;SDS011;60566;48.062;9.930;2023-04-06T14:34:29;10.43;;;5.95;;
72388;SDS011;60566;48.062;9.930;2023-04-06T14:36:54;13.00;;;6.20;;
72388;SDS011;60566;48.062;9.930;2023-04-06T14:39:21;9.95;;;5.88;;
72388;SDS011;60566;48.062;9.930;2023-04-06T14:41:46;10.07;;;5.72;;
72388;SDS011;60566;48.062;9.930;2023-04-06T14:44:12;10.57;;;5.75;;
72388;SDS011;60566;48.062;9.930;2023-04-06T14:46:37;13.45;;;6.15;;
72388;SDS011;60566;48.062;9.930;2023-04-06T14:49:03;10.13;;;6.32;;
72388;SDS011;60566;48.062;9.930;2023-04-06T14:51:28;14.52;;;6.93;;
72388;SDS011;60566;48.062;9.930;2023-04-06T14:53:54;9.73;;;6.05;;